Zweibrücken Airport EDRZ

Flugplatz Daten

Name: Zweibrücken Airport

Ident: EDRZ

Lat: 49,20940018

Long: 7,400559902

Platzhöhe: 1132 ft

IataCode: ZQW

City: Zweibrücken

Metar

2014/09/09 19:50
EDRZ 091950Z 04007KT CAVOK 15/11 Q1019

Taf

2014/09/09 18:27
TAF EDRZ 091700Z 0918/1018 04006KT CAVOK PROB30
TEMPO 1004/1007 4500 BR
Gewünschte Webcam nicht vorhanden? Dann fügen Sie eine hinzu. Sie wird dann so schnell wie möglich freigeschaltet
Url: Title: